map of KTZR home
KTZR - Airport
Location
City:  Columbus, Ohio, United States
Name:Bolton Field
ICAO:KTZR
FAA LID:TZR

Details
Type:Airport (Airfield)
Use:Public/Civil
Latitude:3954'04"N (39.901167)
Longitude:8308'13"W (-83.136916)
Datum:WGS 1984
Elevation:904 ft (276 m)
Variation:6.97W (WMM2015v2 magnetic declination)
-0.02 annual change
Runways:1
Longest:5500 × 100 ft (1676 × 30.5 m), paved

Time
Time Zone:UTC-5 (DST-4)
Local Time:

Weather
METAR:KTZR 041350Z 17005KT 10SM SKC 04/03 A2997

Related Locations
Nearby:
Farthest:YAUG: 11363 mi / 18287 km
Augusta [Augusta Airport], WA, AU

Find:

   beyond  
but within

Other Information
Maps:
NOTAMs:
Links:
Sources:

  
  • flag of United States
  • flag of Ohio
  • flag of Columbus
  

Airport Diagram

Airport diagram for KTZR

Airport diagram PDF from FAA

Sectional Chart

Flight Planning
at skyvector.com

Satellite Image

Google Maps Satellite view

 

Copyright © 2004-2019 Karl L. Swartz. All rights reserved.
The Great Circle Mapper name and logo are trademarks of the Great Circle Mapper.
All other trademarks mentioned herein belong to their respective owners.
Please see credits for attibutions and further copyright information.

  Follow gcmap on Facebook Follow gcmap on Twitter GCmap on LinkedIn

hCard Microformat

Geo Microformat